Portada
METAR-TAF:

METAR-TAF

Aeropuertos :

Leconfield, Inglaterra

latitud: 53-52-37N, longitud: 0-26-15W, altitud: 7 m

Observación

El informe se hizo hace 35 minutos, a las 00:50 UTC
Viento 2 kt del oeste-noroeste
Temperatura 13°C
Humedad 62%
Presión 1033 hPa
Visibilidad 10 km o más

METAR: EGXV 260050Z AUTO 29002KT 9999 BKN110/// BKN140/// 13/06 Q1033

Hora: 02:25 (01:25 UTC)


TAF: falta

Observaciones y pronósticos meteorológicos de más de 4000 aeropuertos (mensajes METAR y TAF).

Los puntos amarillos y rojos representan las estaciones disponibles.

Ponga el ratón en el punto deseado para ver el nombre de la estación.

Haga clic para ver las observaciones y los pronósticos meteorológicos.

Para cambiar el mapa : haga clic en los botones verdes con una cruz de color negro para hacer un zoom, en el botón verde con un guión para alejar o en las flechas verdes para mapas adyacentes.


METAR-TAF: